createdAt,value
2023-05-09T04:05:17.111Z,59.36
2023-05-09T04:08:20.486Z,58.83
2023-05-09T04:11:22.931Z,58.51
2023-05-09T04:14:25.476Z,58.36
2023-05-09T04:17:27.986Z,59.00
2023-05-09T04:20:31.250Z,58.83
2023-05-09T04:23:33.543Z,58.14
2023-05-09T04:26:38.309Z,58.52
2023-05-09T04:29:41.027Z,58.66
2023-05-09T04:32:46.029Z,57.50
2023-05-09T04:35:48.704Z,58.07
2023-05-09T04:38:51.174Z,58.48
2023-05-09T04:41:53.903Z,59.17
2023-05-09T04:44:57.393Z,57.71
2023-05-09T04:47:59.722Z,58.12
2023-05-09T04:51:02.514Z,58.76
2023-05-09T04:54:04.830Z,58.23
2023-05-09T04:57:17.328Z,57.47
2023-05-09T05:00:21.696Z,58.23
2023-05-09T05:03:24.409Z,57.33
2023-05-09T05:06:26.520Z,57.65
2023-05-09T05:09:29.284Z,58.65
2023-05-09T05:12:31.462Z,57.20
2023-05-09T05:15:34.166Z,57.38
2023-05-09T05:18:36.703Z,58.37
2023-05-09T05:21:39.563Z,57.78
2023-05-09T05:24:41.737Z,57.06
2023-05-09T05:27:44.582Z,56.38
2023-05-09T05:30:46.954Z,56.08
2023-05-09T05:33:49.363Z,55.71
2023-05-09T05:36:51.799Z,56.16
2023-05-09T05:44:28.654Z,56.31
2023-05-09T05:47:34.544Z,54.61
2023-05-09T05:50:37.473Z,54.46
2023-05-09T05:53:39.705Z,53.96
2023-05-09T05:56:42.261Z,54.09
2023-05-09T05:59:46.777Z,54.88
2023-05-09T06:02:50.159Z,54.67
2023-05-09T06:05:53.007Z,54.19
2023-05-09T06:08:55.651Z,53.21
2023-05-09T06:11:58.119Z,53.23
2023-05-09T06:15:00.763Z,53.15
2023-05-09T06:18:03.788Z,52.75
2023-05-09T06:21:09.003Z,53.56
2023-05-09T06:24:16.955Z,52.68
2023-05-09T06:27:29.951Z,53.78
2023-05-09T06:30:32.372Z,52.69
2023-05-09T06:33:34.458Z,51.86
2023-05-09T06:36:36.837Z,51.89
2023-05-09T06:39:38.966Z,51.72
2023-05-09T06:42:41.386Z,53.40
2023-05-09T06:45:43.635Z,52.26
2023-05-09T06:48:46.014Z,51.70
2023-05-09T06:51:48.105Z,50.92
2023-05-09T06:54:50.457Z,51.41
2023-05-09T06:57:52.679Z,49.75
2023-05-09T07:00:55.168Z,49.76
2023-05-09T07:03:58.216Z,50.12
2023-05-09T07:07:00.867Z,48.77
2023-05-09T07:10:11.152Z,50.68
2023-05-09T07:13:14.799Z,48.39
2023-05-09T07:16:18.514Z,48.07
2023-05-09T07:19:21.281Z,48.64
2023-05-09T07:22:23.703Z,48.71
2023-05-09T07:25:26.096Z,49.40
2023-05-09T07:28:28.184Z,48.17
2023-05-09T07:31:30.947Z,48.09
2023-05-09T07:34:33.145Z,48.78
2023-05-09T07:37:35.859Z,49.33
2023-05-09T07:40:38.719Z,47.84
2023-05-09T07:43:41.141Z,48.09
2023-05-09T07:46:43.309Z,47.68
2023-05-09T07:49:46.575Z,47.02
2023-05-09T07:52:49.282Z,46.82
2023-05-09T07:55:52.233Z,47.26
2023-05-09T07:58:55.728Z,48.28
2023-05-09T08:01:58.456Z,47.52
2023-05-09T08:05:00.994Z,48.91
2023-05-09T08:08:03.300Z,46.92
2023-05-09T08:11:06.013Z,45.76
2023-05-09T08:14:08.265Z,47.50
2023-05-09T08:17:10.724Z,45.56
2023-05-09T08:20:13.190Z,45.67
2023-05-09T08:23:16.158Z,45.66
2023-05-09T08:26:18.371Z,44.10
2023-05-09T08:29:20.776Z,44.85
2023-05-09T08:32:22.914Z,45.45
2023-05-09T08:35:25.464Z,44.07
2023-05-09T08:38:28.589Z,45.10
2023-05-09T08:41:35.886Z,44.42
2023-05-09T08:44:38.341Z,44.69
2023-05-09T08:47:42.066Z,45.66
2023-05-09T08:50:45.096Z,42.70
2023-05-09T08:53:47.785Z,43.68
2023-05-09T08:56:51.046Z,44.82
2023-05-09T08:59:53.619Z,43.65
2023-05-09T09:03:00.668Z,43.15
2023-05-09T09:06:03.368Z,43.49
2023-05-09T09:09:09.180Z,42.91
2023-05-09T09:12:13.955Z,41.51
2023-05-09T09:15:23.922Z,40.97
2023-05-09T09:18:29.933Z,42.12
2023-05-09T09:21:33.139Z,40.04
2023-05-09T09:24:35.883Z,40.02
2023-05-09T09:27:38.064Z,38.61
2023-05-09T09:30:45.114Z,39.76
2023-05-09T09:33:48.223Z,39.70
2023-05-09T09:36:50.883Z,38.43
2023-05-09T09:39:56.885Z,38.89
2023-05-09T09:42:59.552Z,38.04
2023-05-09T09:46:04.582Z,39.69
2023-05-09T09:49:10.057Z,37.65
2023-05-09T09:52:12.181Z,38.12
2023-05-09T09:55:14.688Z,39.50
2023-05-09T09:58:18.515Z,38.83
2023-05-09T10:01:21.109Z,37.56
2023-05-09T10:04:24.560Z,37.72
2023-05-09T10:07:26.755Z,38.78
2023-05-09T10:10:34.161Z,37.17
2023-05-09T10:13:38.391Z,38.41
2023-05-09T10:16:44.278Z,39.06
2023-05-09T10:19:48.538Z,38.78
2023-05-09T10:22:56.371Z,37.32
2023-05-09T10:26:19.188Z,39.35
2023-05-09T10:29:25.555Z,39.05
2023-05-09T10:32:43.389Z,36.89
2023-05-09T10:35:47.050Z,37.42
2023-05-09T10:38:58.729Z,39.31
2023-05-09T10:42:01.797Z,39.93
2023-05-09T10:45:04.278Z,39.91
2023-05-09T10:48:08.771Z,38.32
2023-05-09T10:51:12.556Z,38.28
2023-05-09T10:54:25.472Z,37.82
2023-05-09T10:57:32.089Z,38.33
2023-05-09T11:00:41.116Z,38.06
2023-05-09T11:04:08.438Z,36.67
2023-05-09T11:07:25.845Z,37.23
2023-05-09T11:10:42.589Z,37.02
2023-05-09T11:13:46.307Z,35.76
2023-05-09T11:17:06.551Z,35.18
2023-05-09T11:20:09.622Z,36.71
2023-05-09T11:23:12.167Z,35.34
2023-05-09T11:26:15.036Z,31.38
2023-05-09T11:29:17.742Z,32.89
2023-05-09T11:32:21.710Z,32.49
2023-05-09T11:35:26.753Z,34.33
2023-05-09T12:00:45.987Z,34.22
2023-05-09T12:03:49.421Z,34.84
2023-05-09T12:06:51.982Z,36.03
2023-05-09T12:09:56.807Z,36.64
2023-05-09T12:12:59.145Z,34.34
2023-05-09T12:16:02.266Z,32.08
2023-05-09T12:19:05.508Z,32.77
2023-05-09T12:22:09.830Z,34.96
2023-05-09T12:25:12.560Z,36.27
2023-05-09T12:28:15.838Z,35.23
2023-05-09T12:31:18.631Z,35.07
2023-05-09T12:34:23.994Z,34.15
2023-05-09T12:37:26.267Z,32.10
2023-05-09T12:40:28.686Z,31.66
2023-05-09T12:43:35.841Z,30.64
2023-05-09T12:46:38.331Z,29.07
2023-05-09T12:49:40.486Z,31.12
2023-05-09T12:53:01.407Z,32.04
2023-05-09T12:56:13.175Z,31.93
2023-05-09T12:59:28.129Z,32.63
2023-05-09T13:02:43.339Z,33.81
2023-05-09T13:05:54.584Z,32.88
2023-05-09T13:09:01.457Z,33.61
2023-05-09T13:12:04.357Z,36.03
2023-05-09T13:15:07.581Z,36.40
2023-05-09T13:18:11.290Z,35.18
2023-05-09T13:21:13.447Z,36.92
2023-05-09T13:24:15.825Z,35.46
2023-05-09T13:27:17.889Z,36.09
2023-05-09T13:30:20.359Z,36.99
2023-05-09T13:33:26.422Z,36.07
2023-05-09T13:36:32.523Z,35.10
2023-05-09T13:39:34.628Z,34.02
2023-05-09T13:42:36.985Z,35.16
2023-05-09T13:45:39.116Z,34.50
2023-05-09T13:48:48.464Z,33.78
2023-05-09T13:51:50.788Z,34.77
2023-05-09T13:54:53.197Z,35.16
2023-05-09T13:57:55.330Z,34.38
2023-05-09T14:00:57.990Z,34.97
2023-05-09T14:04:00.740Z,35.38
2023-05-09T14:07:03.396Z,35.62
2023-05-09T14:10:15.895Z,37.14
2023-05-09T14:13:18.188Z,37.50
2023-05-09T14:16:21.534Z,38.86
2023-05-09T14:19:23.825Z,39.99
2023-05-09T14:22:26.217Z,38.54
2023-05-09T14:25:28.482Z,39.33
2023-05-09T14:28:30.830Z,38.85
2023-05-09T14:31:33.190Z,38.33
2023-05-09T14:34:39.384Z,35.91
2023-05-09T14:37:41.566Z,35.03
2023-05-09T14:40:44.050Z,35.86
2023-05-09T14:43:46.182Z,36.86
2023-05-09T14:46:48.874Z,36.77
2023-05-09T14:49:51.102Z,37.99
2023-05-09T14:52:53.828Z,38.47
2023-05-09T14:55:56.152Z,38.29
2023-05-09T14:58:58.589Z,39.26
2023-05-09T15:02:00.858Z,39.55
2023-05-09T15:05:03.708Z,39.15
2023-05-09T15:08:06.796Z,38.98
2023-05-09T15:11:09.216Z,38.57
2023-05-09T15:14:13.299Z,36.67
2023-05-09T15:17:15.772Z,36.62
2023-05-09T15:20:19.190Z,37.42
2023-05-09T15:23:23.364Z,38.87
2023-05-09T15:26:26.105Z,37.76
2023-05-09T15:29:28.608Z,37.64
2023-05-09T15:32:30.788Z,38.24
2023-05-09T15:35:33.292Z,38.98
2023-05-09T15:38:35.412Z,38.45
2023-05-09T15:41:37.893Z,38.69
2023-05-09T15:44:40.778Z,39.45
2023-05-09T15:47:43.180Z,39.84
2023-05-09T15:50:45.398Z,41.11
